sensor_id;sensor_type;location;lat;lon;timestamp;P1;durP1;ratioP1;P2;durP2;ratioP2
68074;SDS011;54864;52.002;5.468;2023-12-04T00:00:25;31.75;;;20.88;;
68074;SDS011;54864;52.002;5.468;2023-12-04T00:01:46;32.25;;;20.52;;
68074;SDS011;54864;52.002;5.468;2023-12-04T00:03:08;34.00;;;20.58;;
68074;SDS011;54864;52.002;5.468;2023-12-04T00:04:31;35.72;;;20.88;;
68074;SDS011;54864;52.002;5.468;2023-12-04T00:05:53;33.80;;;20.20;;
68074;SDS011;54864;52.002;5.468;2023-12-04T00:07:14;32.05;;;20.48;;
68074;SDS011;54864;52.002;5.468;2023-12-04T00:08:36;30.90;;;19.63;;
68074;SDS011;54864;52.002;5.468;2023-12-04T00:09:57;32.92;;;21.17;;
68074;SDS011;54864;52.002;5.468;2023-12-04T00:11:19;32.38;;;20.85;;
68074;SDS011;54864;52.002;5.468;2023-12-04T00:12:40;34.55;;;20.95;;
68074;SDS011;54864;52.002;5.468;2023-12-04T00:14:02;32.42;;;20.60;;
68074;SDS011;54864;52.002;5.468;2023-12-04T00:15:23;30.88;;;20.30;;
68074;SDS011;54864;52.002;5.468;2023-12-04T00:16:45;34.75;;;21.13;;
68074;SDS011;54864;52.002;5.468;2023-12-04T00:18:06;33.92;;;20.95;;
68074;SDS011;54864;52.002;5.468;2023-12-04T00:19:28;35.75;;;21.83;;
68074;SDS011;54864;52.002;5.468;2023-12-04T00:20:50;35.92;;;22.02;;
68074;SDS011;54864;52.002;5.468;2023-12-04T00:22:12;31.70;;;20.23;;
68074;SDS011;54864;52.002;5.468;2023-12-04T00:23:34;33.33;;;21.10;;
68074;SDS011;54864;52.002;5.468;2023-12-04T00:24:56;33.15;;;21.45;;
68074;SDS011;54864;52.002;5.468;2023-12-04T00:26:17;34.40;;;22.05;;
68074;SDS011;54864;52.002;5.468;2023-12-04T00:27:39;34.03;;;21.63;;
68074;SDS011;54864;52.002;5.468;2023-12-04T00:29:00;33.80;;;21.55;;
68074;SDS011;54864;52.002;5.468;2023-12-04T00:30:22;32.88;;;21.58;;
68074;SDS011;54864;52.002;5.468;2023-12-04T00:31:43;33.13;;;21.27;;
68074;SDS011;54864;52.002;5.468;2023-12-04T00:33:05;36.60;;;21.67;;
68074;SDS011;54864;52.002;5.468;2023-12-04T00:34:26;34.40;;;21.58;;
68074;SDS011;54864;52.002;5.468;2023-12-04T00:35:48;35.17;;;21.83;;
68074;SDS011;54864;52.002;5.468;2023-12-04T00:37:11;34.83;;;21.85;;
68074;SDS011;54864;52.002;5.468;2023-12-04T00:38:33;38.63;;;23.25;;
68074;SDS011;54864;52.002;5.468;2023-12-04T00:39:54;36.13;;;22.00;;
68074;SDS011;54864;52.002;5.468;2023-12-04T00:41:16;36.67;;;23.08;;
68074;SDS011;54864;52.002;5.468;2023-12-04T00:42:38;35.80;;;21.02;;
68074;SDS011;54864;52.002;5.468;2023-12-04T00:44:00;37.17;;;22.23;;
68074;SDS011;54864;52.002;5.468;2023-12-04T00:45:21;36.40;;;22.52;;
68074;SDS011;54864;52.002;5.468;2023-12-04T00:46:43;37.97;;;22.98;;
68074;SDS011;54864;52.002;5.468;2023-12-04T00:48:04;37.53;;;23.60;;
68074;SDS011;54864;52.002;5.468;2023-12-04T00:49:26;35.17;;;22.38;;
68074;SDS011;54864;52.002;5.468;2023-12-04T00:50:47;35.72;;;22.25;;
68074;SDS011;54864;52.002;5.468;2023-12-04T00:52:10;36.20;;;22.45;;
68074;SDS011;54864;52.002;5.468;2023-12-04T00:53:31;41.45;;;23.67;;
68074;SDS011;54864;52.002;5.468;2023-12-04T00:54:53;38.10;;;23.05;;
68074;SDS011;54864;52.002;5.468;2023-12-04T00:56:14;40.28;;;23.20;;
68074;SDS011;54864;52.002;5.468;2023-12-04T00:57:37;36.08;;;22.08;;
68074;SDS011;54864;52.002;5.468;2023-12-04T00:58:58;40.45;;;23.13;;
68074;SDS011;54864;52.002;5.468;2023-12-04T01:00:20;37.17;;;22.88;;
68074;SDS011;54864;52.002;5.468;2023-12-04T01:01:41;39.42;;;23.73;;
68074;SDS011;54864;52.002;5.468;2023-12-04T01:03:03;35.30;;;22.25;;
68074;SDS011;54864;52.002;5.468;2023-12-04T01:04:24;38.90;;;23.55;;
68074;SDS011;54864;52.002;5.468;2023-12-04T01:05:46;35.55;;;22.20;;
68074;SDS011;54864;52.002;5.468;2023-12-04T01:07:07;33.80;;;22.02;;
68074;SDS011;54864;52.002;5.468;2023-12-04T01:08:31;35.00;;;21.40;;
68074;SDS011;54864;52.002;5.468;2023-12-04T01:09:52;36.38;;;22.85;;
68074;SDS011;54864;52.002;5.468;2023-12-04T01:11:14;38.20;;;23.65;;
68074;SDS011;54864;52.002;5.468;2023-12-04T01:12:36;38.58;;;22.65;;
68074;SDS011;54864;52.002;5.468;2023-12-04T01:13:58;35.72;;;22.20;;
68074;SDS011;54864;52.002;5.468;2023-12-04T01:15:19;37.67;;;22.70;;
68074;SDS011;54864;52.002;5.468;2023-12-04T01:16:41;37.85;;;22.50;;
68074;SDS011;54864;52.002;5.468;2023-12-04T01:18:02;40.63;;;23.98;;
68074;SDS011;54864;52.002;5.468;2023-12-04T01:19:24;36.42;;;21.85;;
68074;SDS011;54864;52.002;5.468;2023-12-04T01:20:45;38.40;;;24.25;;
68074;SDS011;54864;52.002;5.468;2023-12-04T01:22:07;39.30;;;22.92;;
68074;SDS011;54864;52.002;5.468;2023-12-04T01:23:28;37.90;;;23.48;;
68074;SDS011;54864;52.002;5.468;2023-12-04T01:24:52;38.85;;;23.48;;
68074;SDS011;54864;52.002;5.468;2023-12-04T01:26:13;39.65;;;24.83;;
68074;SDS011;54864;52.002;5.468;2023-12-04T01:27:35;41.38;;;24.63;;
68074;SDS011;54864;52.002;5.468;2023-12-04T01:28:58;37.70;;;23.70;;
68074;SDS011;54864;52.002;5.468;2023-12-04T01:30:20;36.78;;;22.60;;
68074;SDS011;54864;52.002;5.468;2023-12-04T01:31:41;34.90;;;22.85;;
68074;SDS011;54864;52.002;5.468;2023-12-04T01:33:03;38.60;;;22.98;;
68074;SDS011;54864;52.002;5.468;2023-12-04T01:34:24;37.67;;;24.60;;
68074;SDS011;54864;52.002;5.468;2023-12-04T01:35:46;41.22;;;24.48;;
68074;SDS011;54864;52.002;5.468;2023-12-04T01:37:07;39.08;;;24.33;;
68074;SDS011;54864;52.002;5.468;2023-12-04T01:38:30;39.47;;;23.70;;
68074;SDS011;54864;52.002;5.468;2023-12-04T01:39:52;40.15;;;24.00;;
68074;SDS011;54864;52.002;5.468;2023-12-04T01:41:14;39.38;;;23.90;;
68074;SDS011;54864;52.002;5.468;2023-12-04T01:42:35;36.75;;;23.23;;
68074;SDS011;54864;52.002;5.468;2023-12-04T01:43:57;37.67;;;23.42;;
68074;SDS011;54864;52.002;5.468;2023-12-04T01:45:18;36.15;;;22.98;;
68074;SDS011;54864;52.002;5.468;2023-12-04T01:46:41;37.80;;;23.35;;
68074;SDS011;54864;52.002;5.468;2023-12-04T01:48:03;39.92;;;24.20;;
68074;SDS011;54864;52.002;5.468;2023-12-04T01:49:28;39.60;;;23.92;;
68074;SDS011;54864;52.002;5.468;2023-12-04T01:50:51;38.85;;;23.85;;
68074;SDS011;54864;52.002;5.468;2023-12-04T01:52:13;38.33;;;23.63;;
68074;SDS011;54864;52.002;5.468;2023-12-04T01:53:34;37.78;;;23.08;;
68074;SDS011;54864;52.002;5.468;2023-12-04T01:54:58;40.45;;;24.50;;
68074;SDS011;54864;52.002;5.468;2023-12-04T01:56:20;39.85;;;24.35;;
68074;SDS011;54864;52.002;5.468;2023-12-04T01:57:42;40.63;;;23.38;;
68074;SDS011;54864;52.002;5.468;2023-12-04T01:59:03;37.83;;;23.70;;
68074;SDS011;54864;52.002;5.468;2023-12-04T02:00:25;36.88;;;22.75;;
68074;SDS011;54864;52.002;5.468;2023-12-04T02:01:47;37.15;;;23.50;;
68074;SDS011;54864;52.002;5.468;2023-12-04T02:03:12;37.67;;;23.02;;
68074;SDS011;54864;52.002;5.468;2023-12-04T02:04:34;38.38;;;23.30;;
68074;SDS011;54864;52.002;5.468;2023-12-04T02:05:56;36.63;;;22.80;;
68074;SDS011;54864;52.002;5.468;2023-12-04T02:07:20;38.97;;;23.10;;
68074;SDS011;54864;52.002;5.468;2023-12-04T02:08:48;37.92;;;22.70;;
68074;SDS011;54864;52.002;5.468;2023-12-04T02:10:11;38.80;;;23.90;;
68074;SDS011;54864;52.002;5.468;2023-12-04T02:11:36;39.05;;;23.10;;
68074;SDS011;54864;52.002;5.468;2023-12-04T02:12:58;36.67;;;23.00;;
68074;SDS011;54864;52.002;5.468;2023-12-04T02:14:20;40.22;;;23.58;;
68074;SDS011;54864;52.002;5.468;2023-12-04T02:15:41;36.60;;;23.98;;
68074;SDS011;54864;52.002;5.468;2023-12-04T02:17:03;35.75;;;22.67;;
68074;SDS011;54864;52.002;5.468;2023-12-04T02:18:27;39.15;;;22.63;;
68074;SDS011;54864;52.002;5.468;2023-12-04T02:19:48;35.80;;;22.05;;
68074;SDS011;54864;52.002;5.468;2023-12-04T02:21:10;35.28;;;22.38;;
68074;SDS011;54864;52.002;5.468;2023-12-04T02:22:31;38.45;;;23.45;;
68074;SDS011;54864;52.002;5.468;2023-12-04T02:23:55;38.50;;;23.15;;
68074;SDS011;54864;52.002;5.468;2023-12-04T02:25:16;38.00;;;23.23;;
68074;SDS011;54864;52.002;5.468;2023-12-04T02:26:39;38.75;;;23.17;;
68074;SDS011;54864;52.002;5.468;2023-12-04T02:28:05;37.10;;;22.90;;
68074;SDS011;54864;52.002;5.468;2023-12-04T02:29:34;38.85;;;23.77;;
68074;SDS011;54864;52.002;5.468;2023-12-04T02:31:00;36.40;;;23.05;;
68074;SDS011;54864;52.002;5.468;2023-12-04T02:32:26;35.78;;;22.05;;
68074;SDS011;54864;52.002;5.468;2023-12-04T02:33:51;36.70;;;22.10;;
68074;SDS011;54864;52.002;5.468;2023-12-04T02:35:19;36.65;;;22.13;;
68074;SDS011;54864;52.002;5.468;2023-12-04T02:36:41;37.15;;;23.02;;
68074;SDS011;54864;52.002;5.468;2023-12-04T02:38:05;35.65;;;21.92;;
68074;SDS011;54864;52.002;5.468;2023-12-04T02:39:28;37.72;;;23.08;;
68074;SDS011;54864;52.002;5.468;2023-12-04T02:40:51;35.05;;;22.17;;
68074;SDS011;54864;52.002;5.468;2023-12-04T02:42:12;37.17;;;23.10;;
68074;SDS011;54864;52.002;5.468;2023-12-04T02:43:35;38.28;;;22.50;;
68074;SDS011;54864;52.002;5.468;2023-12-04T02:44:56;36.35;;;22.33;;
68074;SDS011;54864;52.002;5.468;2023-12-04T02:46:18;33.78;;;21.88;;
68074;SDS011;54864;52.002;5.468;2023-12-04T02:47:39;36.15;;;22.05;;
68074;SDS011;54864;52.002;5.468;2023-12-04T02:49:01;37.20;;;22.65;;
68074;SDS011;54864;52.002;5.468;2023-12-04T02:50:22;37.25;;;21.35;;
68074;SDS011;54864;52.002;5.468;2023-12-04T02:51:44;35.40;;;22.00;;
68074;SDS011;54864;52.002;5.468;2023-12-04T02:53:06;32.95;;;21.38;;
68074;SDS011;54864;52.002;5.468;2023-12-04T02:54:29;35.00;;;21.83;;
68074;SDS011;54864;52.002;5.468;2023-12-04T02:55:51;33.33;;;22.05;;
68074;SDS011;54864;52.002;5.468;2023-12-04T02:57:12;36.45;;;21.13;;
68074;SDS011;54864;52.002;5.468;2023-12-04T02:58:34;34.00;;;22.02;;
68074;SDS011;54864;52.002;5.468;2023-12-04T02:59:55;35.40;;;21.30;;
68074;SDS011;54864;52.002;5.468;2023-12-04T03:01:17;37.00;;;22.27;;
68074;SDS011;54864;52.002;5.468;2023-12-04T03:02:38;37.15;;;21.98;;
68074;SDS011;54864;52.002;5.468;2023-12-04T03:04:00;36.03;;;22.45;;
68074;SDS011;54864;52.002;5.468;2023-12-04T03:05:21;35.05;;;21.85;;
68074;SDS011;54864;52.002;5.468;2023-12-04T03:06:43;35.38;;;21.63;;
68074;SDS011;54864;52.002;5.468;2023-12-04T03:08:04;34.20;;;21.27;;
68074;SDS011;54864;52.002;5.468;2023-12-04T03:09:26;33.97;;;21.48;;
68074;SDS011;54864;52.002;5.468;2023-12-04T03:10:49;32.58;;;19.77;;
68074;SDS011;54864;52.002;5.468;2023-12-04T03:12:11;34.55;;;21.48;;
68074;SDS011;54864;52.002;5.468;2023-12-04T03:13:32;36.10;;;21.55;;
68074;SDS011;54864;52.002;5.468;2023-12-04T03:14:54;34.30;;;21.35;;
68074;SDS011;54864;52.002;5.468;2023-12-04T03:16:15;33.07;;;20.43;;
68074;SDS011;54864;52.002;5.468;2023-12-04T03:17:37;32.92;;;20.65;;
68074;SDS011;54864;52.002;5.468;2023-12-04T03:18:58;35.30;;;20.75;;
68074;SDS011;54864;52.002;5.468;2023-12-04T03:20:21;34.47;;;20.27;;
68074;SDS011;54864;52.002;5.468;2023-12-04T03:21:42;33.67;;;21.13;;
68074;SDS011;54864;52.002;5.468;2023-12-04T03:23:04;34.45;;;20.80;;
68074;SDS011;54864;52.002;5.468;2023-12-04T03:24:25;33.83;;;20.92;;
68074;SDS011;54864;52.002;5.468;2023-12-04T03:25:48;32.58;;;20.30;;
68074;SDS011;54864;52.002;5.468;2023-12-04T03:27:09;36.22;;;21.45;;
68074;SDS011;54864;52.002;5.468;2023-12-04T03:28:31;33.85;;;21.52;;
68074;SDS011;54864;52.002;5.468;2023-12-04T03:29:52;31.95;;;21.35;;
68074;SDS011;54864;52.002;5.468;2023-12-04T03:31:14;31.48;;;20.33;;
68074;SDS011;54864;52.002;5.468;2023-12-04T03:32:36;32.83;;;19.63;;
68074;SDS011;54864;52.002;5.468;2023-12-04T03:33:58;30.75;;;20.05;;
68074;SDS011;54864;52.002;5.468;2023-12-04T03:35:19;33.33;;;20.73;;
68074;SDS011;54864;52.002;5.468;2023-12-04T03:36:41;30.95;;;20.35;;
68074;SDS011;54864;52.002;5.468;2023-12-04T03:38:02;31.52;;;20.00;;
68074;SDS011;54864;52.002;5.468;2023-12-04T03:39:24;30.10;;;19.52;;
68074;SDS011;54864;52.002;5.468;2023-12-04T03:40:45;29.98;;;19.73;;
68074;SDS011;54864;52.002;5.468;2023-12-04T03:42:08;29.92;;;19.50;;
68074;SDS011;54864;52.002;5.468;2023-12-04T03:43:29;31.75;;;20.17;;
68074;SDS011;54864;52.002;5.468;2023-12-04T03:44:51;34.47;;;20.33;;
68074;SDS011;54864;52.002;5.468;2023-12-04T03:46:12;32.85;;;20.15;;
68074;SDS011;54864;52.002;5.468;2023-12-04T03:47:34;30.80;;;18.95;;
68074;SDS011;54864;52.002;5.468;2023-12-04T03:48:55;30.48;;;19.08;;
68074;SDS011;54864;52.002;5.468;2023-12-04T03:50:18;33.47;;;20.70;;
68074;SDS011;54864;52.002;5.468;2023-12-04T03:51:38;30.40;;;18.55;;
68074;SDS011;54864;52.002;5.468;2023-12-04T03:53:01;29.15;;;19.10;;
68074;SDS011;54864;52.002;5.468;2023-12-04T03:54:22;31.77;;;19.70;;
68074;SDS011;54864;52.002;5.468;2023-12-04T03:55:44;34.15;;;20.13;;
68074;SDS011;54864;52.002;5.468;2023-12-04T03:57:05;32.13;;;20.17;;
68074;SDS011;54864;52.002;5.468;2023-12-04T03:58:28;31.73;;;19.65;;
68074;SDS011;54864;52.002;5.468;2023-12-04T03:59:49;29.50;;;18.17;;
68074;SDS011;54864;52.002;5.468;2023-12-04T04:01:11;30.25;;;19.17;;
68074;SDS011;54864;52.002;5.468;2023-12-04T04:02:32;27.90;;;18.58;;
68074;SDS011;54864;52.002;5.468;2023-12-04T04:03:55;29.77;;;19.27;;
68074;SDS011;54864;52.002;5.468;2023-12-04T04:05:16;28.27;;;17.63;;
68074;SDS011;54864;52.002;5.468;2023-12-04T04:06:38;32.67;;;19.75;;
68074;SDS011;54864;52.002;5.468;2023-12-04T04:07:59;30.23;;;18.25;;
68074;SDS011;54864;52.002;5.468;2023-12-04T04:09:21;29.70;;;18.13;;
68074;SDS011;54864;52.002;5.468;2023-12-04T04:10:42;29.73;;;18.77;;
68074;SDS011;54864;52.002;5.468;2023-12-04T04:12:06;31.90;;;19.48;;
68074;SDS011;54864;52.002;5.468;2023-12-04T04:13:27;30.38;;;18.08;;
68074;SDS011;54864;52.002;5.468;2023-12-04T04:14:50;28.50;;;18.75;;
68074;SDS011;54864;52.002;5.468;2023-12-04T04:16:13;29.75;;;18.10;;
68074;SDS011;54864;52.002;5.468;2023-12-04T04:17:36;28.65;;;17.58;;
68074;SDS011;54864;52.002;5.468;2023-12-04T04:18:57;29.52;;;18.27;;
68074;SDS011;54864;52.002;5.468;2023-12-04T04:20:19;32.65;;;18.80;;
68074;SDS011;54864;52.002;5.468;2023-12-04T04:21:41;28.67;;;18.52;;
68074;SDS011;54864;52.002;5.468;2023-12-04T04:23:03;25.63;;;17.40;;
68074;SDS011;54864;52.002;5.468;2023-12-04T04:24:24;27.08;;;17.05;;
68074;SDS011;54864;52.002;5.468;2023-12-04T04:25:46;26.27;;;16.80;;
68074;SDS011;54864;52.002;5.468;2023-12-04T04:27:07;29.60;;;18.08;;
68074;SDS011;54864;52.002;5.468;2023-12-04T04:28:30;26.00;;;16.48;;
68074;SDS011;54864;52.002;5.468;2023-12-04T04:29:51;25.88;;;17.50;;
68074;SDS011;54864;52.002;5.468;2023-12-04T04:31:13;28.17;;;17.48;;
68074;SDS011;54864;52.002;5.468;2023-12-04T04:32:34;27.13;;;17.55;;
68074;SDS011;54864;52.002;5.468;2023-12-04T04:33:56;24.95;;;17.05;;
68074;SDS011;54864;52.002;5.468;2023-12-04T04:35:17;28.60;;;18.73;;
68074;SDS011;54864;52.002;5.468;2023-12-04T04:36:40;25.73;;;17.25;;
68074;SDS011;54864;52.002;5.468;2023-12-04T04:38:02;24.05;;;16.70;;
68074;SDS011;54864;52.002;5.468;2023-12-04T04:39:23;27.17;;;16.88;;
68074;SDS011;54864;52.002;5.468;2023-12-04T04:40:45;30.75;;;17.52;;
68074;SDS011;54864;52.002;5.468;2023-12-04T04:42:06;29.67;;;17.85;;
68074;SDS011;54864;52.002;5.468;2023-12-04T04:43:28;26.83;;;17.53;;
68074;SDS011;54864;52.002;5.468;2023-12-04T04:44:50;26.58;;;16.48;;
68074;SDS011;54864;52.002;5.468;2023-12-04T04:46:13;27.88;;;18.20;;
68074;SDS011;54864;52.002;5.468;2023-12-04T04:47:34;28.63;;;17.80;;
68074;SDS011;54864;52.002;5.468;2023-12-04T04:48:56;28.25;;;17.58;;
68074;SDS011;54864;52.002;5.468;2023-12-04T04:50:17;25.02;;;17.17;;
68074;SDS011;54864;52.002;5.468;2023-12-04T04:51:39;27.33;;;17.38;;
68074;SDS011;54864;52.002;5.468;2023-12-04T04:53:00;26.38;;;17.02;;
68074;SDS011;54864;52.002;5.468;2023-12-04T04:54:23;25.08;;;17.35;;
68074;SDS011;54864;52.002;5.468;2023-12-04T04:55:44;25.60;;;17.08;;
68074;SDS011;54864;52.002;5.468;2023-12-04T04:57:06;27.90;;;18.10;;
68074;SDS011;54864;52.002;5.468;2023-12-04T04:58:28;23.70;;;16.10;;
68074;SDS011;54864;52.002;5.468;2023-12-04T04:59:52;26.77;;;16.92;;
68074;SDS011;54864;52.002;5.468;2023-12-04T05:01:13;30.88;;;17.90;;
68074;SDS011;54864;52.002;5.468;2023-12-04T05:02:36;26.08;;;17.33;;
68074;SDS011;54864;52.002;5.468;2023-12-04T05:03:57;26.55;;;16.52;;
68074;SDS011;54864;52.002;5.468;2023-12-04T05:05:20;26.05;;;17.55;;
68074;SDS011;54864;52.002;5.468;2023-12-04T05:06:41;24.13;;;16.17;;
68074;SDS011;54864;52.002;5.468;2023-12-04T05:08:03;26.13;;;17.08;;
68074;SDS011;54864;52.002;5.468;2023-12-04T05:09:24;26.80;;;16.48;;
68074;SDS011;54864;52.002;5.468;2023-12-04T05:10:46;26.23;;;17.15;;
68074;SDS011;54864;52.002;5.468;2023-12-04T05:12:07;25.23;;;16.75;;
68074;SDS011;54864;52.002;5.468;2023-12-04T05:13:29;28.15;;;17.83;;
68074;SDS011;54864;52.002;5.468;2023-12-04T05:14:52;25.58;;;16.60;;
68074;SDS011;54864;52.002;5.468;2023-12-04T05:16:14;25.70;;;17.27;;
68074;SDS011;54864;52.002;5.468;2023-12-04T05:17:35;25.77;;;16.83;;
68074;SDS011;54864;52.002;5.468;2023-12-04T05:18:57;23.98;;;15.93;;
68074;SDS011;54864;52.002;5.468;2023-12-04T05:20:18;25.27;;;16.85;;
68074;SDS011;54864;52.002;5.468;2023-12-04T05:21:40;25.23;;;16.42;;
68074;SDS011;54864;52.002;5.468;2023-12-04T05:23:01;26.30;;;17.30;;
68074;SDS011;54864;52.002;5.468;2023-12-04T05:24:23;24.27;;;16.23;;
68074;SDS011;54864;52.002;5.468;2023-12-04T05:25:44;23.05;;;15.93;;
68074;SDS011;54864;52.002;5.468;2023-12-04T05:27:06;23.73;;;16.55;;
68074;SDS011;54864;52.002;5.468;2023-12-04T05:28:27;24.10;;;16.58;;
68074;SDS011;54864;52.002;5.468;2023-12-04T05:29:49;25.05;;;16.40;;
68074;SDS011;54864;52.002;5.468;2023-12-04T05:31:12;25.60;;;16.42;;
68074;SDS011;54864;52.002;5.468;2023-12-04T05:32:34;23.83;;;16.08;;
68074;SDS011;54864;52.002;5.468;2023-12-04T05:33:55;24.55;;;16.10;;
68074;SDS011;54864;52.002;5.468;2023-12-04T05:35:17;22.95;;;15.80;;
68074;SDS011;54864;52.002;5.468;2023-12-04T05:36:39;24.25;;;16.05;;
68074;SDS011;54864;52.002;5.468;2023-12-04T05:38:01;25.27;;;16.38;;
68074;SDS011;54864;52.002;5.468;2023-12-04T05:39:22;24.88;;;16.15;;
68074;SDS011;54864;52.002;5.468;2023-12-04T05:40:44;23.95;;;15.73;;
68074;SDS011;54864;52.002;5.468;2023-12-04T05:42:05;23.67;;;15.88;;
68074;SDS011;54864;52.002;5.468;2023-12-04T05:43:28;22.33;;;15.80;;
68074;SDS011;54864;52.002;5.468;2023-12-04T05:44:49;23.40;;;15.40;;
68074;SDS011;54864;52.002;5.468;2023-12-04T05:46:15;22.42;;;15.32;;
68074;SDS011;54864;52.002;5.468;2023-12-04T05:47:36;25.08;;;16.77;;
68074;SDS011;54864;52.002;5.468;2023-12-04T05:48:58;20.95;;;15.13;;
68074;SDS011;54864;52.002;5.468;2023-12-04T05:50:19;22.27;;;14.75;;
68074;SDS011;54864;52.002;5.468;2023-12-04T05:51:41;22.60;;;15.50;;
68074;SDS011;54864;52.002;5.468;2023-12-04T05:53:02;22.73;;;15.70;;
68074;SDS011;54864;52.002;5.468;2023-12-04T05:54:24;21.20;;;14.95;;
68074;SDS011;54864;52.002;5.468;2023-12-04T05:55:45;25.45;;;16.13;;
68074;SDS011;54864;52.002;5.468;2023-12-04T05:57:08;24.00;;;15.55;;
68074;SDS011;54864;52.002;5.468;2023-12-04T05:58:29;23.63;;;16.35;;
68074;SDS011;54864;52.002;5.468;2023-12-04T05:59:51;22.27;;;15.30;;
68074;SDS011;54864;52.002;5.468;2023-12-04T06:01:12;24.27;;;15.10;;
68074;SDS011;54864;52.002;5.468;2023-12-04T06:02:37;22.88;;;16.27;;
68074;SDS011;54864;52.002;5.468;2023-12-04T06:03:58;23.25;;;15.57;;
68074;SDS011;54864;52.002;5.468;2023-12-04T06:05:20;22.60;;;14.70;;
68074;SDS011;54864;52.002;5.468;2023-12-04T06:06:42;23.27;;;15.20;;
68074;SDS011;54864;52.002;5.468;2023-12-04T06:08:05;20.70;;;15.23;;
68074;SDS011;54864;52.002;5.468;2023-12-04T06:09:26;21.83;;;14.38;;
68074;SDS011;54864;52.002;5.468;2023-12-04T06:10:48;23.05;;;15.10;;
68074;SDS011;54864;52.002;5.468;2023-12-04T06:12:10;22.15;;;14.80;;
68074;SDS011;54864;52.002;5.468;2023-12-04T06:13:31;19.35;;;14.00;;
68074;SDS011;54864;52.002;5.468;2023-12-04T06:14:53;21.30;;;14.73;;
68074;SDS011;54864;52.002;5.468;2023-12-04T06:16:14;19.25;;;14.13;;
68074;SDS011;54864;52.002;5.468;2023-12-04T06:17:37;23.15;;;15.10;;
68074;SDS011;54864;52.002;5.468;2023-12-04T06:18:58;21.10;;;14.48;;
68074;SDS011;54864;52.002;5.468;2023-12-04T06:20:21;21.02;;;15.18;;
68074;SDS011;54864;52.002;5.468;2023-12-04T06:21:42;22.55;;;15.23;;
68074;SDS011;54864;52.002;5.468;2023-12-04T06:23:04;22.13;;;14.95;;
68074;SDS011;54864;52.002;5.468;2023-12-04T06:24:25;21.73;;;14.80;;
68074;SDS011;54864;52.002;5.468;2023-12-04T06:25:48;22.90;;;14.80;;
68074;SDS011;54864;52.002;5.468;2023-12-04T06:27:09;21.67;;;14.88;;
68074;SDS011;54864;52.002;5.468;2023-12-04T06:28:36;21.30;;;14.33;;
68074;SDS011;54864;52.002;5.468;2023-12-04T06:29:58;22.48;;;15.20;;
68074;SDS011;54864;52.002;5.468;2023-12-04T06:31:21;20.38;;;14.05;;
68074;SDS011;54864;52.002;5.468;2023-12-04T06:32:44;21.27;;;13.60;;
68074;SDS011;54864;52.002;5.468;2023-12-04T06:34:07;21.02;;;14.25;;
68074;SDS011;54864;52.002;5.468;2023-12-04T06:35:28;20.48;;;14.30;;
68074;SDS011;54864;52.002;5.468;2023-12-04T06:36:51;22.30;;;15.02;;
68074;SDS011;54864;52.002;5.468;2023-12-04T06:38:14;22.05;;;15.35;;
68074;SDS011;54864;52.002;5.468;2023-12-04T06:39:38;21.73;;;14.73;;
68074;SDS011;54864;52.002;5.468;2023-12-04T06:41:00;21.17;;;14.27;;
68074;SDS011;54864;52.002;5.468;2023-12-04T06:42:22;20.80;;;14.73;;
68074;SDS011;54864;52.002;5.468;2023-12-04T06:43:44;20.95;;;14.27;;
68074;SDS011;54864;52.002;5.468;2023-12-04T06:45:07;20.95;;;14.85;;
68074;SDS011;54864;52.002;5.468;2023-12-04T06:46:29;19.00;;;13.90;;
68074;SDS011;54864;52.002;5.468;2023-12-04T06:47:54;20.30;;;13.95;;
68074;SDS011;54864;52.002;5.468;2023-12-04T06:49:19;22.13;;;15.02;;
68074;SDS011;54864;52.002;5.468;2023-12-04T06:50:41;21.08;;;14.80;;
68074;SDS011;54864;52.002;5.468;2023-12-04T06:52:02;21.92;;;14.13;;
68074;SDS011;54864;52.002;5.468;2023-12-04T06:53:25;20.77;;;15.15;;
68074;SDS011;54864;52.002;5.468;2023-12-04T06:54:46;21.58;;;14.60;;
68074;SDS011;54864;52.002;5.468;2023-12-04T06:56:09;19.20;;;14.33;;
68074;SDS011;54864;52.002;5.468;2023-12-04T06:57:30;19.63;;;14.02;;
68074;SDS011;54864;52.002;5.468;2023-12-04T06:58:52;20.37;;;14.13;;
68074;SDS011;54864;52.002;5.468;2023-12-04T07:00:13;20.00;;;13.85;;
68074;SDS011;54864;52.002;5.468;2023-12-04T07:01:37;22.92;;;14.00;;
68074;SDS011;54864;52.002;5.468;2023-12-04T07:02:59;23.90;;;14.68;;
68074;SDS011;54864;52.002;5.468;2023-12-04T07:04:21;20.23;;;13.85;;
68074;SDS011;54864;52.002;5.468;2023-12-04T07:05:42;21.10;;;13.40;;
68074;SDS011;54864;52.002;5.468;2023-12-04T07:07:04;19.25;;;13.45;;
68074;SDS011;54864;52.002;5.468;2023-12-04T07:08:25;18.20;;;13.10;;
68074;SDS011;54864;52.002;5.468;2023-12-04T07:09:47;19.98;;;13.63;;
68074;SDS011;54864;52.002;5.468;2023-12-04T07:11:09;22.63;;;14.85;;
68074;SDS011;54864;52.002;5.468;2023-12-04T07:12:31;18.55;;;13.57;;
68074;SDS011;54864;52.002;5.468;2023-12-04T07:13:52;20.40;;;13.00;;
68074;SDS011;54864;52.002;5.468;2023-12-04T07:15:14;22.33;;;13.95;;
68074;SDS011;54864;52.002;5.468;2023-12-04T07:16:38;18.77;;;13.48;;
68074;SDS011;54864;52.002;5.468;2023-12-04T07:18:03;17.40;;;12.43;;
68074;SDS011;54864;52.002;5.468;2023-12-04T07:19:24;18.85;;;13.05;;
68074;SDS011;54864;52.002;5.468;2023-12-04T07:20:47;20.95;;;13.88;;
68074;SDS011;54864;52.002;5.468;2023-12-04T07:22:08;17.25;;;12.80;;
68074;SDS011;54864;52.002;5.468;2023-12-04T07:23:30;18.45;;;13.20;;
68074;SDS011;54864;52.002;5.468;2023-12-04T07:24:51;17.80;;;12.93;;
68074;SDS011;54864;52.002;5.468;2023-12-04T07:26:13;17.95;;;12.68;;
68074;SDS011;54864;52.002;5.468;2023-12-04T07:27:34;17.23;;;12.25;;
68074;SDS011;54864;52.002;5.468;2023-12-04T07:28:56;16.50;;;11.95;;
68074;SDS011;54864;52.002;5.468;2023-12-04T07:30:17;18.30;;;12.40;;
68074;SDS011;54864;52.002;5.468;2023-12-04T07:31:41;17.33;;;12.02;;
68074;SDS011;54864;52.002;5.468;2023-12-04T07:33:04;16.70;;;12.43;;
68074;SDS011;54864;52.002;5.468;2023-12-04T07:34:26;15.85;;;11.73;;
68074;SDS011;54864;52.002;5.468;2023-12-04T07:35:47;15.63;;;11.70;;
68074;SDS011;54864;52.002;5.468;2023-12-04T07:37:09;19.10;;;12.63;;
68074;SDS011;54864;52.002;5.468;2023-12-04T07:38:31;18.83;;;12.50;;
68074;SDS011;54864;52.002;5.468;2023-12-04T07:39:53;16.50;;;11.98;;
68074;SDS011;54864;52.002;5.468;2023-12-04T07:41:14;15.93;;;11.40;;
68074;SDS011;54864;52.002;5.468;2023-12-04T07:42:36;16.98;;;12.00;;
68074;SDS011;54864;52.002;5.468;2023-12-04T07:43:57;16.48;;;12.05;;
68074;SDS011;54864;52.002;5.468;2023-12-04T07:45:19;17.33;;;12.47;;
68074;SDS011;54864;52.002;5.468;2023-12-04T07:46:41;17.35;;;11.93;;
68074;SDS011;54864;52.002;5.468;2023-12-04T07:48:05;19.35;;;12.45;;
68074;SDS011;54864;52.002;5.468;2023-12-04T07:49:27;19.05;;;12.70;;
68074;SDS011;54864;52.002;5.468;2023-12-04T07:50:49;17.50;;;11.93;;
68074;SDS011;54864;52.002;5.468;2023-12-04T07:52:10;17.97;;;12.03;;
68074;SDS011;54864;52.002;5.468;2023-12-04T07:53:32;17.77;;;11.95;;
68074;SDS011;54864;52.002;5.468;2023-12-04T07:54:54;17.30;;;11.93;;
68074;SDS011;54864;52.002;5.468;2023-12-04T07:56:16;16.75;;;11.38;;
68074;SDS011;54864;52.002;5.468;2023-12-04T07:57:36;16.80;;;12.55;;
68074;SDS011;54864;52.002;5.468;2023-12-04T07:58:59;15.68;;;10.98;;